sensor_id;sensor_type;location;lat;lon;timestamp;pressure;altitude;pressure_sealevel;temperature;humidity
48364;BME280;34170;54.364;18.582;2022-08-19T00:01:57;99959.84;;;22.04;100.00
48364;BME280;34170;54.364;18.582;2022-08-19T00:04:33;99962.88;;;21.96;100.00
48364;BME280;34170;54.364;18.582;2022-08-19T00:07:04;99952.25;;;21.87;100.00
48364;BME280;34170;54.364;18.582;2022-08-19T00:09:33;99952.09;;;21.82;100.00
48364;BME280;34170;54.364;18.582;2022-08-19T00:12:01;99951.31;;;21.75;100.00
48364;BME280;34170;54.364;18.582;2022-08-19T00:14:29;99954.50;;;21.72;100.00
48364;BME280;34170;54.364;18.582;2022-08-19T00:17:00;99956.63;;;21.70;100.00
48364;BME280;34170;54.364;18.582;2022-08-19T00:19:28;99961.03;;;21.71;100.00
48364;BME280;34170;54.364;18.582;2022-08-19T00:21:55;99966.97;;;21.68;100.00
48364;BME280;34170;54.364;18.582;2022-08-19T00:24:24;99976.00;;;21.68;100.00
48364;BME280;34170;54.364;18.582;2022-08-19T00:26:52;99972.06;;;21.64;100.00
48364;BME280;34170;54.364;18.582;2022-08-19T00:29:21;99979.34;;;21.70;100.00
48364;BME280;34170;54.364;18.582;2022-08-19T00:31:49;99984.94;;;21.82;100.00
48364;BME280;34170;54.364;18.582;2022-08-19T00:34:18;99986.16;;;21.86;100.00
48364;BME280;34170;54.364;18.582;2022-08-19T00:36:45;99977.09;;;21.86;100.00
48364;BME280;34170;54.364;18.582;2022-08-19T00:39:14;99976.25;;;21.85;100.00
48364;BME280;34170;54.364;18.582;2022-08-19T00:41:43;99980.59;;;21.93;100.00
48364;BME280;34170;54.364;18.582;2022-08-19T00:44:24;99990.13;;;22.09;100.00
48364;BME280;34170;54.364;18.582;2022-08-19T00:46:55;99985.41;;;22.16;100.00
48364;BME280;34170;54.364;18.582;2022-08-19T00:49:31;99987.81;;;22.24;100.00
48364;BME280;34170;54.364;18.582;2022-08-19T00:52:05;99981.94;;;22.21;100.00
48364;BME280;34170;54.364;18.582;2022-08-19T00:54:33;99981.47;;;22.31;100.00
48364;BME280;34170;54.364;18.582;2022-08-19T00:57:06;99978.25;;;22.34;100.00
48364;BME280;34170;54.364;18.582;2022-08-19T00:59:37;99974.91;;;22.32;100.00
48364;BME280;34170;54.364;18.582;2022-08-19T01:02:26;99987.16;;;22.29;100.00
48364;BME280;34170;54.364;18.582;2022-08-19T01:04:54;99983.19;;;22.25;100.00
48364;BME280;34170;54.364;18.582;2022-08-19T01:07:22;99987.22;;;22.22;100.00
48364;BME280;34170;54.364;18.582;2022-08-19T01:09:50;99981.13;;;22.20;100.00
48364;BME280;34170;54.364;18.582;2022-08-19T01:12:18;99984.31;;;22.17;100.00
48364;BME280;34170;54.364;18.582;2022-08-19T01:14:46;99979.78;;;22.11;100.00
48364;BME280;34170;54.364;18.582;2022-08-19T01:17:14;99988.44;;;22.08;100.00
48364;BME280;34170;54.364;18.582;2022-08-19T01:19:45;99991.78;;;22.10;100.00
48364;BME280;34170;54.364;18.582;2022-08-19T01:24:59;99984.25;;;22.05;100.00
48364;BME280;34170;54.364;18.582;2022-08-19T01:27:26;99985.09;;;22.06;100.00
48364;BME280;34170;54.364;18.582;2022-08-19T01:30:01;99985.97;;;22.00;100.00
48364;BME280;34170;54.364;18.582;2022-08-19T01:32:30;99974.53;;;21.91;100.00
48364;BME280;34170;54.364;18.582;2022-08-19T01:35:02;99989.88;;;21.92;100.00
48364;BME280;34170;54.364;18.582;2022-08-19T01:37:30;99985.16;;;21.81;100.00
48364;BME280;34170;54.364;18.582;2022-08-19T01:39:57;99971.97;;;21.71;100.00
48364;BME280;34170;54.364;18.582;2022-08-19T01:42:25;99974.09;;;21.69;100.00
48364;BME280;34170;54.364;18.582;2022-08-19T01:44:56;99975.34;;;21.73;100.00
48364;BME280;34170;54.364;18.582;2022-08-19T01:47:24;99970.53;;;21.68;100.00
48364;BME280;34170;54.364;18.582;2022-08-19T01:49:51;99973.88;;;21.70;100.00
48364;BME280;34170;54.364;18.582;2022-08-19T01:52:19;99978.09;;;21.73;100.00
48364;BME280;34170;54.364;18.582;2022-08-19T01:54:46;99973.75;;;21.84;100.00
48364;BME280;34170;54.364;18.582;2022-08-19T01:57:14;99977.00;;;21.93;100.00
48364;BME280;34170;54.364;18.582;2022-08-19T01:59:42;99977.66;;;21.95;100.00
48364;BME280;34170;54.364;18.582;2022-08-19T02:02:11;99972.75;;;22.15;100.00
48364;BME280;34170;54.364;18.582;2022-08-19T02:04:38;99977.34;;;22.21;100.00
48364;BME280;34170;54.364;18.582;2022-08-19T02:07:06;99977.72;;;22.25;100.00
48364;BME280;34170;54.364;18.582;2022-08-19T02:09:35;99972.69;;;22.22;100.00
48364;BME280;34170;54.364;18.582;2022-08-19T02:12:04;99980.31;;;22.20;100.00
48364;BME280;34170;54.364;18.582;2022-08-19T02:14:33;99972.97;;;22.14;100.00
48364;BME280;34170;54.364;18.582;2022-08-19T02:17:01;99976.59;;;22.14;100.00
48364;BME280;34170;54.364;18.582;2022-08-19T02:19:28;99965.94;;;22.06;100.00
48364;BME280;34170;54.364;18.582;2022-08-19T02:21:55;99977.47;;;22.08;100.00
48364;BME280;34170;54.364;18.582;2022-08-19T02:24:23;99977.41;;;22.15;100.00
48364;BME280;34170;54.364;18.582;2022-08-19T02:26:50;99967.28;;;22.15;100.00
48364;BME280;34170;54.364;18.582;2022-08-19T02:29:18;99970.63;;;22.17;100.00
48364;BME280;34170;54.364;18.582;2022-08-19T02:31:45;99958.91;;;22.10;100.00
48364;BME280;34170;54.364;18.582;2022-08-19T02:34:13;99956.41;;;22.08;100.00
48364;BME280;34170;54.364;18.582;2022-08-19T02:36:40;99961.28;;;22.25;100.00
48364;BME280;34170;54.364;18.582;2022-08-19T02:39:09;99961.72;;;22.22;100.00
48364;BME280;34170;54.364;18.582;2022-08-19T02:41:36;99966.31;;;22.28;100.00
48364;BME280;34170;54.364;18.582;2022-08-19T02:44:04;99956.63;;;22.25;100.00
48364;BME280;34170;54.364;18.582;2022-08-19T02:46:52;99957.91;;;22.23;100.00
48364;BME280;34170;54.364;18.582;2022-08-19T02:49:19;99968.03;;;22.22;100.00
48364;BME280;34170;54.364;18.582;2022-08-19T02:51:46;99956.09;;;22.17;100.00
48364;BME280;34170;54.364;18.582;2022-08-19T02:54:14;99972.66;;;22.29;100.00
48364;BME280;34170;54.364;18.582;2022-08-19T02:56:43;99967.75;;;22.31;100.00
48364;BME280;34170;54.364;18.582;2022-08-19T02:59:10;99977.56;;;22.38;100.00
48364;BME280;34170;54.364;18.582;2022-08-19T03:01:40;99969.28;;;22.26;100.00
48364;BME280;34170;54.364;18.582;2022-08-19T03:04:10;99977.19;;;22.35;100.00
48364;BME280;34170;54.364;18.582;2022-08-19T03:06:40;99968.81;;;22.30;100.00
48364;BME280;34170;54.364;18.582;2022-08-19T03:09:09;99975.13;;;22.30;100.00
48364;BME280;34170;54.364;18.582;2022-08-19T03:11:37;99969.41;;;22.32;100.00
48364;BME280;34170;54.364;18.582;2022-08-19T03:14:06;99971.72;;;22.35;100.00
48364;BME280;34170;54.364;18.582;2022-08-19T03:16:45;99971.72;;;22.35;100.00
48364;BME280;34170;54.364;18.582;2022-08-19T03:19:16;99976.13;;;22.36;100.00
48364;BME280;34170;54.364;18.582;2022-08-19T03:21:44;99964.16;;;22.30;100.00
48364;BME280;34170;54.364;18.582;2022-08-19T03:24:13;99979.38;;;22.26;100.00
48364;BME280;34170;54.364;18.582;2022-08-19T03:26:45;99964.69;;;22.20;100.00
48364;BME280;34170;54.364;18.582;2022-08-19T03:29:14;99974.81;;;22.20;100.00
48364;BME280;34170;54.364;18.582;2022-08-19T03:31:56;99977.78;;;22.18;100.00
48364;BME280;34170;54.364;18.582;2022-08-19T03:34:26;99963.78;;;22.08;100.00
48364;BME280;34170;54.364;18.582;2022-08-19T03:36:55;99984.53;;;22.16;100.00
48364;BME280;34170;54.364;18.582;2022-08-19T03:39:24;99977.09;;;22.04;100.00
48364;BME280;34170;54.364;18.582;2022-08-19T03:41:52;99971.25;;;22.01;100.00
48364;BME280;34170;54.364;18.582;2022-08-19T03:44:40;99974.22;;;21.99;100.00
48364;BME280;34170;54.364;18.582;2022-08-19T03:47:09;99973.22;;;21.94;100.00
48364;BME280;34170;54.364;18.582;2022-08-19T03:49:36;99971.47;;;21.99;100.00
48364;BME280;34170;54.364;18.582;2022-08-19T03:52:04;99959.53;;;21.94;100.00
48364;BME280;34170;54.364;18.582;2022-08-19T03:54:35;99972.63;;;21.92;100.00
48364;BME280;34170;54.364;18.582;2022-08-19T03:57:02;99966.31;;;21.91;100.00
48364;BME280;34170;54.364;18.582;2022-08-19T03:59:33;99958.56;;;21.88;100.00
48364;BME280;34170;54.364;18.582;2022-08-19T04:02:03;99974.22;;;21.99;100.00
48364;BME280;34170;54.364;18.582;2022-08-19T04:04:32;99972.44;;;22.05;100.00
48364;BME280;34170;54.364;18.582;2022-08-19T04:07:00;99962.41;;;22.17;100.00
48364;BME280;34170;54.364;18.582;2022-08-19T04:09:27;99971.72;;;22.35;100.00
48364;BME280;34170;54.364;18.582;2022-08-19T04:11:56;99980.75;;;22.17;100.00
48364;BME280;34170;54.364;18.582;2022-08-19T04:14:26;99975.88;;;22.00;100.00
48364;BME280;34170;54.364;18.582;2022-08-19T04:16:56;99984.09;;;22.19;100.00
48364;BME280;34170;54.364;18.582;2022-08-19T04:19:24;99986.28;;;22.10;100.00
48364;BME280;34170;54.364;18.582;2022-08-19T04:21:53;99978.34;;;22.27;100.00
48364;BME280;34170;54.364;18.582;2022-08-19T04:24:21;99979.19;;;22.27;100.00
48364;BME280;34170;54.364;18.582;2022-08-19T04:26:50;99980.59;;;22.49;100.00
48364;BME280;34170;54.364;18.582;2022-08-19T04:29:23;99982.97;;;22.45;100.00
48364;BME280;34170;54.364;18.582;2022-08-19T04:31:54;99983.38;;;22.60;100.00
48364;BME280;34170;54.364;18.582;2022-08-19T04:34:23;99986.53;;;22.76;100.00
48364;BME280;34170;54.364;18.582;2022-08-19T04:36:53;99985.50;;;22.58;100.00
48364;BME280;34170;54.364;18.582;2022-08-19T04:39:28;99982.31;;;22.92;100.00
48364;BME280;34170;54.364;18.582;2022-08-19T04:42:16;99982.78;;;23.31;100.00
48364;BME280;34170;54.364;18.582;2022-08-19T04:45:05;99990.63;;;23.39;100.00
48364;BME280;34170;54.364;18.582;2022-08-19T04:47:37;99975.50;;;23.36;100.00
48364;BME280;34170;54.364;18.582;2022-08-19T04:50:26;99995.44;;;23.44;100.00
48364;BME280;34170;54.364;18.582;2022-08-19T04:52:54;99997.56;;;23.53;100.00
48364;BME280;34170;54.364;18.582;2022-08-19T04:55:23;99990.88;;;23.37;100.00
48364;BME280;34170;54.364;18.582;2022-08-19T04:57:53;99989.00;;;23.73;100.00
48364;BME280;34170;54.364;18.582;2022-08-19T05:00:22;99981.13;;;23.77;100.00
48364;BME280;34170;54.364;18.582;2022-08-19T05:02:49;100000.06;;;24.26;100.00
48364;BME280;34170;54.364;18.582;2022-08-19T05:05:17;100000.69;;;23.45;100.00
48364;BME280;34170;54.364;18.582;2022-08-19T05:07:44;99994.81;;;23.53;100.00
48364;BME280;34170;54.364;18.582;2022-08-19T05:10:11;100005.44;;;22.96;100.00
48364;BME280;34170;54.364;18.582;2022-08-19T05:12:39;99996.41;;;23.85;100.00
48364;BME280;34170;54.364;18.582;2022-08-19T05:15:07;100001.88;;;23.49;100.00
48364;BME280;34170;54.364;18.582;2022-08-19T05:17:37;99997.03;;;24.80;100.00
48364;BME280;34170;54.364;18.582;2022-08-19T05:20:25;99999.47;;;26.12;100.00
48364;BME280;34170;54.364;18.582;2022-08-19T05:23:11;100002.59;;;28.42;69.18
48364;BME280;34170;54.364;18.582;2022-08-19T05:25:50;99997.75;;;30.13;59.52
48364;BME280;34170;54.364;18.582;2022-08-19T05:28:19;100000.56;;;28.90;62.00
48364;BME280;34170;54.364;18.582;2022-08-19T05:30:47;99996.91;;;26.49;69.93
48364;BME280;34170;54.364;18.582;2022-08-19T05:33:18;99994.09;;;26.66;71.59
48364;BME280;34170;54.364;18.582;2022-08-19T05:35:45;99995.38;;;25.58;76.55
48364;BME280;34170;54.364;18.582;2022-08-19T05:38:13;99996.72;;;24.93;80.80
48364;BME280;34170;54.364;18.582;2022-08-19T05:40:40;99990.09;;;26.13;74.53
48364;BME280;34170;54.364;18.582;2022-08-19T05:43:08;100017.78;;;26.01;74.10
48364;BME280;34170;54.364;18.582;2022-08-19T05:45:40;100004.00;;;25.16;77.18
48364;BME280;34170;54.364;18.582;2022-08-19T05:48:09;100008.47;;;25.51;75.32
48364;BME280;34170;54.364;18.582;2022-08-19T05:50:39;100015.38;;;24.62;80.09
48364;BME280;34170;54.364;18.582;2022-08-19T05:53:07;100011.56;;;25.09;77.61
48364;BME280;34170;54.364;18.582;2022-08-19T05:55:36;100006.03;;;25.38;76.23
48364;BME280;34170;54.364;18.582;2022-08-19T05:58:05;100015.47;;;24.96;75.84
48364;BME280;34170;54.364;18.582;2022-08-19T06:00:36;100016.63;;;25.80;73.04
48364;BME280;34170;54.364;18.582;2022-08-19T06:03:04;100031.91;;;25.71;73.98
48364;BME280;34170;54.364;18.582;2022-08-19T06:05:39;100035.41;;;25.83;72.86
48364;BME280;34170;54.364;18.582;2022-08-19T06:08:18;100023.13;;;24.77;78.01
48364;BME280;34170;54.364;18.582;2022-08-19T06:10:46;100028.38;;;25.24;75.95
48364;BME280;34170;54.364;18.582;2022-08-19T06:13:13;100029.94;;;26.05;72.15
48364;BME280;34170;54.364;18.582;2022-08-19T06:15:41;100032.22;;;25.74;75.19
48364;BME280;34170;54.364;18.582;2022-08-19T06:18:11;100027.78;;;26.95;67.93
48364;BME280;34170;54.364;18.582;2022-08-19T06:20:39;100025.28;;;26.05;71.05
48364;BME280;34170;54.364;18.582;2022-08-19T06:23:22;100023.81;;;28.94;61.94
48364;BME280;34170;54.364;18.582;2022-08-19T06:25:50;100032.13;;;30.83;53.49
48364;BME280;34170;54.364;18.582;2022-08-19T06:28:17;100033.91;;;31.47;48.97
48364;BME280;34170;54.364;18.582;2022-08-19T06:30:45;100025.69;;;30.97;48.77
48364;BME280;34170;54.364;18.582;2022-08-19T06:33:12;100038.50;;;31.28;50.20
48364;BME280;34170;54.364;18.582;2022-08-19T06:35:40;100025.81;;;31.22;49.17
48364;BME280;34170;54.364;18.582;2022-08-19T06:38:08;100035.16;;;34.64;41.50
48364;BME280;34170;54.364;18.582;2022-08-19T06:40:36;100041.22;;;36.07;38.38
48364;BME280;34170;54.364;18.582;2022-08-19T06:43:05;100047.75;;;36.91;35.11
48364;BME280;34170;54.364;18.582;2022-08-19T06:45:37;100037.59;;;31.43;44.89
48364;BME280;34170;54.364;18.582;2022-08-19T06:48:06;100042.19;;;33.40;41.78
48364;BME280;34170;54.364;18.582;2022-08-19T06:50:33;100035.75;;;32.88;41.94
48364;BME280;34170;54.364;18.582;2022-08-19T06:53:05;100037.28;;;33.18;41.17
48364;BME280;34170;54.364;18.582;2022-08-19T06:55:33;100038.06;;;36.31;35.86
48364;BME280;34170;54.364;18.582;2022-08-19T06:58:03;100024.59;;;33.59;41.43
48364;BME280;34170;54.364;18.582;2022-08-19T07:00:31;100022.06;;;35.01;37.83
48364;BME280;34170;54.364;18.582;2022-08-19T07:02:58;100026.53;;;33.77;40.48
48364;BME280;34170;54.364;18.582;2022-08-19T07:05:39;100024.00;;;32.91;43.17
48364;BME280;34170;54.364;18.582;2022-08-19T07:08:11;100023.34;;;34.95;38.55
48364;BME280;34170;54.364;18.582;2022-08-19T07:10:43;100027.72;;;31.90;43.87
48364;BME280;34170;54.364;18.582;2022-08-19T07:13:10;100032.03;;;32.01;45.29
48364;BME280;34170;54.364;18.582;2022-08-19T07:15:38;100020.16;;;31.32;46.93
48364;BME280;34170;54.364;18.582;2022-08-19T07:18:06;100032.19;;;32.63;43.00
48364;BME280;34170;54.364;18.582;2022-08-19T07:20:39;100028.81;;;31.89;44.83
48364;BME280;34170;54.364;18.582;2022-08-19T07:23:09;100033.53;;;35.00;38.76
48364;BME280;34170;54.364;18.582;2022-08-19T07:25:42;100038.47;;;30.88;47.21
48364;BME280;34170;54.364;18.582;2022-08-19T07:28:10;100040.25;;;32.65;44.78
48364;BME280;34170;54.364;18.582;2022-08-19T07:30:51;100023.94;;;30.62;48.48
48364;BME280;34170;54.364;18.582;2022-08-19T07:33:19;100034.84;;;32.49;44.18
48364;BME280;34170;54.364;18.582;2022-08-19T07:35:46;100017.69;;;30.20;51.16
48364;BME280;34170;54.364;18.582;2022-08-19T07:38:15;100030.16;;;33.59;42.56
48364;BME280;34170;54.364;18.582;2022-08-19T07:40:44;100030.22;;;35.34;38.76
48364;BME280;34170;54.364;18.582;2022-08-19T07:43:13;100022.72;;;33.87;41.24
48364;BME280;34170;54.364;18.582;2022-08-19T07:45:44;100026.16;;;37.00;35.18
48364;BME280;34170;54.364;18.582;2022-08-19T07:48:12;100036.41;;;38.05;33.44
48364;BME280;34170;54.364;18.582;2022-08-19T07:50:39;100017.09;;;31.68;45.80
48364;BME280;34170;54.364;18.582;2022-08-19T07:53:07;100021.47;;;35.27;39.27
48364;BME280;34170;54.364;18.582;2022-08-19T07:55:34;100021.06;;;33.39;43.03
48364;BME280;34170;54.364;18.582;2022-08-19T07:58:11;100023.88;;;35.42;38.27
48364;BME280;34170;54.364;18.582;2022-08-19T08:00:39;100035.25;;;37.97;33.71
48364;BME280;34170;54.364;18.582;2022-08-19T08:03:06;100030.31;;;34.56;39.98
48364;BME280;34170;54.364;18.582;2022-08-19T08:05:35;100033.75;;;36.34;36.67
48364;BME280;34170;54.364;18.582;2022-08-19T08:08:21;100028.63;;;34.69;39.23
48364;BME280;34170;54.364;18.582;2022-08-19T08:11:17;100032.91;;;36.99;35.29
48364;BME280;34170;54.364;18.582;2022-08-19T08:13:48;100021.84;;;37.64;33.74
48364;BME280;34170;54.364;18.582;2022-08-19T08:16:28;100018.09;;;34.66;40.22
48364;BME280;34170;54.364;18.582;2022-08-19T08:18:58;100010.19;;;34.31;40.20
48364;BME280;34170;54.364;18.582;2022-08-19T08:21:27;100012.94;;;35.77;37.93
48364;BME280;34170;54.364;18.582;2022-08-19T08:23:54;100023.66;;;33.83;40.46
48364;BME280;34170;54.364;18.582;2022-08-19T08:26:23;100006.97;;;30.64;49.97
48364;BME280;34170;54.364;18.582;2022-08-19T08:28:51;99999.16;;;32.08;46.35
48364;BME280;34170;54.364;18.582;2022-08-19T08:31:19;99991.94;;;31.20;48.38
48364;BME280;34170;54.364;18.582;2022-08-19T08:33:47;99998.03;;;31.56;47.10
48364;BME280;34170;54.364;18.582;2022-08-19T08:36:15;99985.59;;;29.99;51.69
48364;BME280;34170;54.364;18.582;2022-08-19T08:38:44;99993.41;;;29.61;53.51
48364;BME280;34170;54.364;18.582;2022-08-19T08:44:15;99993.97;;;30.59;49.50
48364;BME280;34170;54.364;18.582;2022-08-19T08:46:55;100002.09;;;31.34;48.28
48364;BME280;34170;54.364;18.582;2022-08-19T08:52:18;100003.31;;;32.59;43.68
48364;BME280;34170;54.364;18.582;2022-08-19T08:54:51;100002.31;;;33.07;43.34
48364;BME280;34170;54.364;18.582;2022-08-19T08:58:01;99995.38;;;35.85;37.83
48364;BME280;34170;54.364;18.582;2022-08-19T09:00:33;99996.66;;;36.86;35.28
48364;BME280;34170;54.364;18.582;2022-08-19T09:03:03;99992.91;;;38.58;32.52
48364;BME280;34170;54.364;18.582;2022-08-19T09:06:01;99987.44;;;39.04;31.51
48364;BME280;34170;54.364;18.582;2022-08-19T09:08:49;99980.53;;;35.54;35.78
48364;BME280;34170;54.364;18.582;2022-08-19T09:15:00;99986.31;;;35.12;36.14
48364;BME280;34170;54.364;18.582;2022-08-19T09:17:30;99989.28;;;34.93;37.18
48364;BME280;34170;54.364;18.582;2022-08-19T09:20:23;99983.63;;;34.20;38.80
48364;BME280;34170;54.364;18.582;2022-08-19T09:22:48;99979.81;;;31.10;44.84
48364;BME280;34170;54.364;18.582;2022-08-19T09:25:19;99970.25;;;31.56;44.30
48364;BME280;34170;54.364;18.582;2022-08-19T09:27:54;99982.53;;;32.71;40.88
48364;BME280;34170;54.364;18.582;2022-08-19T09:30:34;99976.78;;;34.26;38.40
48364;BME280;34170;54.364;18.582;2022-08-19T09:33:05;99982.16;;;34.09;38.49
48364;BME280;34170;54.364;18.582;2022-08-19T09:35:33;99969.06;;;33.62;39.22
48364;BME280;34170;54.364;18.582;2022-08-19T09:38:20;99975.00;;;31.80;42.19
48364;BME280;34170;54.364;18.582;2022-08-19T09:40:48;99965.25;;;32.30;42.32
48364;BME280;34170;54.364;18.582;2022-08-19T09:43:17;99959.25;;;31.94;43.49
48364;BME280;34170;54.364;18.582;2022-08-19T09:46:00;99961.78;;;33.34;40.67
48364;BME280;34170;54.364;18.582;2022-08-19T09:48:28;99977.34;;;31.67;43.34
48364;BME280;34170;54.364;18.582;2022-08-19T09:51:05;99961.34;;;31.83;43.48
48364;BME280;34170;54.364;18.582;2022-08-19T09:53:38;99959.63;;;33.77;39.22
48364;BME280;34170;54.364;18.582;2022-08-19T09:56:06;99970.00;;;32.73;40.81
48364;BME280;34170;54.364;18.582;2022-08-19T09:58:36;99954.31;;;32.15;42.16
48364;BME280;34170;54.364;18.582;2022-08-19T10:01:06;99951.56;;;34.17;38.81
48364;BME280;34170;54.364;18.582;2022-08-19T10:03:35;99951.97;;;35.34;35.83
48364;BME280;34170;54.364;18.582;2022-08-19T10:06:04;99953.47;;;34.72;36.83
48364;BME280;34170;54.364;18.582;2022-08-19T10:08:41;99960.59;;;35.46;35.46
48364;BME280;34170;54.364;18.582;2022-08-19T10:11:16;99948.00;;;33.56;37.93
48364;BME280;34170;54.364;18.582;2022-08-19T10:14:03;99946.25;;;32.57;39.87
48364;BME280;34170;54.364;18.582;2022-08-19T10:16:33;99946.59;;;32.31;40.98
48364;BME280;34170;54.364;18.582;2022-08-19T10:19:05;99957.06;;;33.48;38.12
48364;BME280;34170;54.364;18.582;2022-08-19T10:21:33;99932.00;;;31.96;41.59
48364;BME280;34170;54.364;18.582;2022-08-19T10:24:04;99936.28;;;31.01;43.73
48364;BME280;34170;54.364;18.582;2022-08-19T10:26:36;99930.41;;;30.02;45.62
48364;BME280;34170;54.364;18.582;2022-08-19T10:29:04;99924.38;;;30.90;44.79
48364;BME280;34170;54.364;18.582;2022-08-19T10:31:35;99918.03;;;32.01;42.22
48364;BME280;34170;54.364;18.582;2022-08-19T10:34:23;99924.13;;;32.03;41.25
48364;BME280;34170;54.364;18.582;2022-08-19T10:36:55;99921.28;;;32.90;40.22
48364;BME280;34170;54.364;18.582;2022-08-19T10:39:35;99920.91;;;32.39;40.69
48364;BME280;34170;54.364;18.582;2022-08-19T10:42:10;99919.09;;;32.86;40.11
48364;BME280;34170;54.364;18.582;2022-08-19T10:44:37;99919.84;;;32.35;41.29
48364;BME280;34170;54.364;18.582;2022-08-19T10:47:05;99909.94;;;33.19;39.01
48364;BME280;34170;54.364;18.582;2022-08-19T10:49:51;99917.81;;;32.22;40.61
48364;BME280;34170;54.364;18.582;2022-08-19T10:52:43;99902.25;;;31.48;41.36
48364;BME280;34170;54.364;18.582;2022-08-19T10:55:23;99917.16;;;31.28;43.06
48364;BME280;34170;54.364;18.582;2022-08-19T10:58:11;99895.81;;;31.77;41.85
48364;BME280;34170;54.364;18.582;2022-08-19T11:00:40;99898.06;;;32.80;40.58
48364;BME280;34170;54.364;18.582;2022-08-19T11:03:07;99897.09;;;31.85;40.38
48364;BME280;34170;54.364;18.582;2022-08-19T11:05:36;99903.34;;;31.77;42.60
48364;BME280;34170;54.364;18.582;2022-08-19T11:08:07;99896.97;;;32.19;40.86
48364;BME280;34170;54.364;18.582;2022-08-19T11:10:54;99913.84;;;32.47;40.36
48364;BME280;34170;54.364;18.582;2022-08-19T11:13:27;99884.69;;;31.53;42.57
48364;BME280;34170;54.364;18.582;2022-08-19T11:16:00;99873.53;;;32.01;41.92
48364;BME280;34170;54.364;18.582;2022-08-19T11:18:37;99878.41;;;31.13;43.43
48364;BME280;34170;54.364;18.582;2022-08-19T11:21:13;99863.41;;;30.45;45.03
48364;BME280;34170;54.364;18.582;2022-08-19T11:23:41;99864.56;;;30.39;46.33
48364;BME280;34170;54.364;18.582;2022-08-19T11:26:09;99866.91;;;30.06;46.90
48364;BME280;34170;54.364;18.582;2022-08-19T11:28:37;99857.94;;;29.64;46.96
48364;BME280;34170;54.364;18.582;2022-08-19T11:31:16;99873.84;;;30.09;46.41
48364;BME280;34170;54.364;18.582;2022-08-19T11:33:44;99866.34;;;30.14;46.91
48364;BME280;34170;54.364;18.582;2022-08-19T11:36:14;99871.31;;;30.17;46.63
48364;BME280;34170;54.364;18.582;2022-08-19T11:38:44;99874.94;;;30.08;46.18
48364;BME280;34170;54.364;18.582;2022-08-19T11:41:11;99852.03;;;29.92;46.09
48364;BME280;34170;54.364;18.582;2022-08-19T11:43:39;99842.56;;;30.03;46.71
48364;BME280;34170;54.364;18.582;2022-08-19T11:46:08;99859.88;;;30.24;46.29
48364;BME280;34170;54.364;18.582;2022-08-19T11:48:37;99853.03;;;30.11;46.51
48364;BME280;34170;54.364;18.582;2022-08-19T11:51:11;99857.03;;;29.90;46.61
48364;BME280;34170;54.364;18.582;2022-08-19T11:53:39;99844.28;;;29.89;47.10
48364;BME280;34170;54.364;18.582;2022-08-19T11:56:08;99828.53;;;30.34;46.35
48364;BME280;34170;54.364;18.582;2022-08-19T11:58:36;99825.03;;;30.13;46.14
48364;BME280;34170;54.364;18.582;2022-08-19T12:01:11;99827.28;;;30.06;45.37
48364;BME280;34170;54.364;18.582;2022-08-19T12:03:39;99823.88;;;30.19;45.79
48364;BME280;34170;54.364;18.582;2022-08-19T12:06:09;99830.56;;;30.57;45.42
48364;BME280;34170;54.364;18.582;2022-08-19T12:08:37;99824.50;;;30.55;45.36
48364;BME280;34170;54.364;18.582;2022-08-19T12:11:04;99837.66;;;30.74;45.66
48364;BME280;34170;54.364;18.582;2022-08-19T12:13:34;99824.53;;;30.79;45.87
48364;BME280;34170;54.364;18.582;2022-08-19T12:16:09;99815.44;;;30.74;45.67
48364;BME280;34170;54.364;18.582;2022-08-19T12:18:40;99810.03;;;30.93;45.19
48364;BME280;34170;54.364;18.582;2022-08-19T12:21:10;99806.41;;;30.92;44.28
48364;BME280;34170;54.364;18.582;2022-08-19T12:23:40;99819.72;;;30.90;44.44
48364;BME280;34170;54.364;18.582;2022-08-19T12:26:10;99813.06;;;30.96;44.06
48364;BME280;34170;54.364;18.582;2022-08-19T12:28:38;99800.41;;;30.80;44.35
48364;BME280;34170;54.364;18.582;2022-08-19T12:31:05;99811.75;;;30.49;45.09
48364;BME280;34170;54.364;18.582;2022-08-19T12:33:33;99809.44;;;30.62;44.89
48364;BME280;34170;54.364;18.582;2022-08-19T12:36:05;99810.44;;;30.76;43.89
48364;BME280;34170;54.364;18.582;2022-08-19T12:38:33;99812.88;;;30.83;43.13
48364;BME280;34170;54.364;18.582;2022-08-19T12:41:02;99813.47;;;30.45;43.45
48364;BME280;34170;54.364;18.582;2022-08-19T12:43:34;99815.50;;;30.34;43.23
48364;BME280;34170;54.364;18.582;2022-08-19T12:46:05;99789.44;;;30.65;43.32
48364;BME280;34170;54.364;18.582;2022-08-19T12:48:37;99797.28;;;30.57;43.84
48364;BME280;34170;54.364;18.582;2022-08-19T12:51:10;99795.41;;;30.82;43.24
48364;BME280;34170;54.364;18.582;2022-08-19T12:53:38;99783.22;;;30.78;42.95
48364;BME280;34170;54.364;18.582;2022-08-19T12:56:07;99778.06;;;30.66;42.62
48364;BME280;34170;54.364;18.582;2022-08-19T12:58:39;99786.72;;;30.59;43.40
48364;BME280;34170;54.364;18.582;2022-08-19T13:01:17;99774.31;;;30.52;44.02
48364;BME280;34170;54.364;18.582;2022-08-19T13:03:50;99789.06;;;30.42;44.22
48364;BME280;34170;54.364;18.582;2022-08-19T13:06:20;99768.72;;;30.57;43.70
48364;BME280;34170;54.364;18.582;2022-08-19T13:08:48;99765.00;;;30.32;43.62
48364;BME280;34170;54.364;18.582;2022-08-19T13:11:18;99762.47;;;30.41;44.09
48364;BME280;34170;54.364;18.582;2022-08-19T13:13:48;99777.84;;;30.57;43.42
48364;BME280;34170;54.364;18.582;2022-08-19T13:16:18;99760.53;;;30.71;43.25